Time;durP1;ratioP1;P1;durP2;ratioP2;P2;SDS_P1;SDS_P2;PMS_P1;PMS_P2;Temp;Humidity;BMP_temperature;BMP_pressure;BME280_temperature;BME280_humidity;BME280_pressure;Samples;Min_cycle;Max_cycle;Signal;HPM_P1;HPM_P2
2023/01/12 00:00:52;;;;;;;44.37;29.70;;;;;;;;;;5069330;28;20200;-82
2023/01/12 00:03:18;;;;;;;43.17;28.90;;;;;;;;;;5073082;28;20255;-83
2023/01/12 00:05:44;;;;;;;46.07;30.23;;;;;;;;;;5058081;28;20189;-82
2023/01/12 00:08:10;;;;;;;43.47;29.03;;;;;;;;;;5055769;28;20182;-82
2023/01/12 00:10:36;;;;;;;45.60;30.20;;;;;;;;;;5051912;28;20201;-82
2023/01/12 00:13:02;;;;;;;44.47;29.33;;;;;;;;;;5058153;28;20231;-81
2023/01/12 00:18:13;;;;;;;41.53;28.07;;;;;;;;;;5068333;28;20287;-82
2023/01/12 00:20:39;;;;;;;47.47;30.10;;;;;;;;;;5055254;28;20177;-82
2023/01/12 00:23:07;;;;;;;43.40;28.10;;;;;;;;;;5056045;28;20908;-81
2023/01/12 00:25:33;;;;;;;43.37;29.63;;;;;;;;;;5058310;28;20242;-81
2023/01/12 00:27:58;;;;;;;46.90;29.87;;;;;;;;;;5052181;28;20278;-82
2023/01/12 00:30:24;;;;;;;47.53;29.53;;;;;;;;;;5072530;28;20548;-82
2023/01/12 00:32:50;;;;;;;43.87;30.20;;;;;;;;;;5054561;28;20240;-81
2023/01/12 00:35:16;;;;;;;41.57;29.73;;;;;;;;;;5056364;28;20192;-82
2023/01/12 00:37:42;;;;;;;42.43;29.00;;;;;;;;;;5071166;28;20549;-81
2023/01/12 00:40:09;;;;;;;42.80;30.13;;;;;;;;;;5088667;28;20260;-82
2023/01/12 00:45:23;;;;;;;41.87;29.17;;;;;;;;;;5073080;28;20633;-81
2023/01/12 00:47:49;;;;;;;47.40;30.87;;;;;;;;;;5054605;28;20275;-82
2023/01/12 00:50:15;;;;;;;45.97;29.57;;;;;;;;;;5088276;28;20260;-81
2023/01/12 00:52:41;;;;;;;46.00;29.90;;;;;;;;;;5069412;28;20220;-82
2023/01/12 00:55:07;;;;;;;48.63;31.13;;;;;;;;;;5053987;28;20266;-82
2023/01/12 00:57:33;;;;;;;40.50;28.13;;;;;;;;;;5054664;28;20264;-82
2023/01/12 00:59:59;;;;;;;46.67;29.87;;;;;;;;;;5070183;28;20258;-82
2023/01/12 01:02:26;;;;;;;40.30;27.53;;;;;;;;;;5055500;28;20575;-81
2023/01/12 01:04:51;;;;;;;41.27;28.30;;;;;;;;;;5051548;28;20194;-82
2023/01/12 01:07:20;;;;;;;39.43;27.37;;;;;;;;;;5054686;28;20192;-82
2023/01/12 01:09:46;;;;;;;43.13;28.57;;;;;;;;;;5052969;28;20195;-81
2023/01/12 01:12:12;;;;;;;43.43;29.97;;;;;;;;;;5053271;28;20261;-82
2023/01/12 01:14:38;;;;;;;42.57;28.67;;;;;;;;;;5053638;28;20239;-81
2023/01/12 01:17:04;;;;;;;43.87;29.33;;;;;;;;;;5054081;28;20546;-82
2023/01/12 01:19:30;;;;;;;44.43;29.67;;;;;;;;;;5069832;28;20185;-82
2023/01/12 01:21:56;;;;;;;38.53;26.53;;;;;;;;;;5087684;28;20223;-82
2023/01/12 01:24:22;;;;;;;38.83;26.80;;;;;;;;;;5054601;28;20169;-81
2023/01/12 01:26:49;;;;;;;42.40;28.73;;;;;;;;;;5067832;28;20633;-82
2023/01/12 01:29:15;;;;;;;42.07;29.80;;;;;;;;;;5087034;28;20588;-81
2023/01/12 01:31:41;;;;;;;40.10;28.57;;;;;;;;;;5085394;28;20287;-82
2023/01/12 01:34:07;;;;;;;38.10;28.50;;;;;;;;;;5054275;28;20189;-82
2023/01/12 01:36:33;;;;;;;44.27;28.87;;;;;;;;;;5054316;28;20169;-82
2023/01/12 01:38:59;;;;;;;43.33;27.87;;;;;;;;;;5071572;28;20188;-82
2023/01/12 01:41:27;;;;;;;40.83;28.50;;;;;;;;;;5042571;28;20181;-82
2023/01/12 01:44:04;;;;;;;45.83;29.00;;;;;;;;;;5041154;28;20217;-82
2023/01/12 01:46:30;;;;;;;45.13;29.80;;;;;;;;;;5073852;28;20216;-82
2023/01/12 01:48:59;;;;;;;39.97;27.90;;;;;;;;;;5086627;28;20174;-82
2023/01/12 01:51:25;;;;;;;43.27;28.30;;;;;;;;;;5053973;28;20233;-82
2023/01/12 01:53:51;;;;;;;37.83;27.17;;;;;;;;;;5053302;28;20180;-82
2023/01/12 01:56:21;;;;;;;40.30;27.33;;;;;;;;;;5069665;28;20181;-82
2023/01/12 01:58:54;;;;;;;39.53;26.93;;;;;;;;;;5053198;28;20205;-82
2023/01/12 02:01:20;;;;;;;37.73;27.50;;;;;;;;;;5053050;28;20200;-82
2023/01/12 02:03:46;;;;;;;39.57;27.83;;;;;;;;;;5086050;28;20259;-82
2023/01/12 02:06:13;;;;;;;36.87;27.50;;;;;;;;;;5072247;28;20671;-82
2023/01/12 02:08:45;;;;;;;39.83;28.63;;;;;;;;;;5053485;28;20185;-81
2023/01/12 02:16:19;;;;;;;35.73;26.13;;;;;;;;;;5053814;28;20189;-81
2023/01/12 02:16:51;;;;;;;37.37;25.77;;;;;;;;;;5070310;28;20675;-82
2023/01/12 02:19:45;;;;;;;34.00;25.27;;;;;;;;;;5053557;28;20188;-82
2023/01/12 02:22:30;;;;;;;37.40;26.57;;;;;;;;;;5052170;28;20304;-81
2023/01/12 02:25:03;;;;;;;36.63;26.67;;;;;;;;;;5057953;28;20211;-82
2023/01/12 02:27:52;;;;;;;35.87;25.00;;;;;;;;;;5054327;28;20184;-82
2023/01/12 02:30:50;;;;;;;37.73;25.63;;;;;;;;;;5057851;28;20185;-81
2023/01/12 02:33:32;;;;;;;36.83;26.47;;;;;;;;;;5054788;28;20189;-82
2023/01/12 02:36:04;;;;;;;39.80;27.97;;;;;;;;;;5057064;28;20235;-81
2023/01/12 02:38:36;;;;;;;35.53;25.27;;;;;;;;;;5056496;28;20177;-81
2023/01/12 02:41:05;;;;;;;37.43;25.83;;;;;;;;;;5057333;28;20524;-82
2023/01/12 02:43:32;;;;;;;37.77;27.07;;;;;;;;;;5089383;28;20204;-82
2023/01/12 02:46:13;;;;;;;37.20;25.33;;;;;;;;;;5056313;28;20259;-81
2023/01/12 02:48:58;;;;;;;40.00;27.07;;;;;;;;;;5069960;28;20275;-82
2023/01/12 02:51:32;;;;;;;34.47;26.37;;;;;;;;;;5069189;28;20169;-82
2023/01/12 02:54:01;;;;;;;35.07;26.10;;;;;;;;;;5056328;28;20181;-81
2023/01/12 02:56:34;;;;;;;34.97;25.27;;;;;;;;;;5056054;28;20181;-82
2023/01/12 02:59:02;;;;;;;33.97;26.03;;;;;;;;;;5074213;28;20712;-82
2023/01/12 03:01:29;;;;;;;37.77;25.83;;;;;;;;;;5056554;28;20192;-82
2023/01/12 03:03:57;;;;;;;34.87;26.23;;;;;;;;;;5056107;28;20222;-82
2023/01/12 03:06:23;;;;;;;36.37;26.20;;;;;;;;;;5054174;28;20610;-82
2023/01/12 03:08:51;;;;;;;35.37;24.77;;;;;;;;;;5069952;28;20268;-82
2023/01/12 03:11:21;;;;;;;35.10;25.27;;;;;;;;;;5055990;28;20188;-82
2023/01/12 03:13:51;;;;;;;36.33;25.57;;;;;;;;;;5056462;28;20184;-82
2023/01/12 03:16:20;;;;;;;37.50;26.00;;;;;;;;;;5055805;28;20180;-83
2023/01/12 03:18:46;;;;;;;34.17;26.37;;;;;;;;;;5055739;28;20187;-82
2023/01/12 03:21:15;;;;;;;31.13;25.00;;;;;;;;;;5071798;28;20540;-82
2023/01/12 03:23:44;;;;;;;41.43;27.47;;;;;;;;;;5072591;28;20287;-82
2023/01/12 03:26:11;;;;;;;33.77;24.97;;;;;;;;;;5073692;28;20181;-82
2023/01/12 03:28:42;;;;;;;33.03;24.20;;;;;;;;;;5053450;28;20193;-82
2023/01/12 03:31:09;;;;;;;36.13;25.40;;;;;;;;;;5071047;28;20249;-82
2023/01/12 03:33:36;;;;;;;34.47;25.47;;;;;;;;;;5053841;28;20185;-82
2023/01/12 03:36:07;;;;;;;37.93;26.70;;;;;;;;;;5054666;28;20181;-82
2023/01/12 03:38:33;;;;;;;43.07;27.77;;;;;;;;;;5060175;28;20183;-82
2023/01/12 03:41:22;;;;;;;36.20;26.10;;;;;;;;;;5056064;28;20211;-82
2023/01/12 03:43:52;;;;;;;36.13;25.60;;;;;;;;;;5055775;28;20685;-82
2023/01/12 03:46:21;;;;;;;37.07;25.57;;;;;;;;;;5048456;28;20221;-82
2023/01/12 03:48:51;;;;;;;35.27;26.13;;;;;;;;;;5036755;28;20635;-83
2023/01/12 03:51:20;;;;;;;36.70;26.20;;;;;;;;;;5032634;28;20221;-82
2023/01/12 03:53:48;;;;;;;31.27;23.47;;;;;;;;;;5035821;28;20702;-82
2023/01/12 03:56:16;;;;;;;34.40;25.50;;;;;;;;;;5054186;28;20319;-82
2023/01/12 03:58:42;;;;;;;34.40;24.63;;;;;;;;;;5032266;28;20194;-82
2023/01/12 04:01:08;;;;;;;38.70;26.20;;;;;;;;;;5067606;28;20192;-83
2023/01/12 04:03:34;;;;;;;35.93;24.27;;;;;;;;;;5035978;28;20226;-82
2023/01/12 04:06:00;;;;;;;33.33;23.27;;;;;;;;;;5052210;28;20260;-82
2023/01/12 04:08:26;;;;;;;38.37;26.13;;;;;;;;;;5035759;28;20182;-81
2023/01/12 04:10:52;;;;;;;34.30;24.27;;;;;;;;;;5035497;28;20232;-82
2023/01/12 04:13:18;;;;;;;36.07;25.87;;;;;;;;;;5034462;28;20194;-82
2023/01/12 04:15:46;;;;;;;33.70;24.10;;;;;;;;;;5033881;28;20206;-82
2023/01/12 04:18:12;;;;;;;34.23;24.30;;;;;;;;;;5051588;28;20189;-82
2023/01/12 04:20:38;;;;;;;35.17;25.03;;;;;;;;;;5050109;28;20178;-82
2023/01/12 04:23:06;;;;;;;33.03;24.13;;;;;;;;;;5053154;28;20214;-82
2023/01/12 04:25:32;;;;;;;37.70;26.63;;;;;;;;;;5035042;28;20231;-83
2023/01/12 04:28:01;;;;;;;31.60;24.83;;;;;;;;;;5035292;28;20174;-82
2023/01/12 04:30:28;;;;;;;34.90;24.33;;;;;;;;;;5032084;28;20217;-82
2023/01/12 04:32:55;;;;;;;35.00;25.47;;;;;;;;;;5029655;28;20232;-82
2023/01/12 04:35:22;;;;;;;36.43;26.33;;;;;;;;;;5060278;28;20186;-82
2023/01/12 04:37:48;;;;;;;33.30;24.83;;;;;;;;;;5035420;28;20236;-82
2023/01/12 04:40:15;;;;;;;31.90;24.50;;;;;;;;;;5032344;28;20224;-82
2023/01/12 04:43:00;;;;;;;38.87;27.73;;;;;;;;;;5030519;28;20236;-82
2023/01/12 04:45:26;;;;;;;39.40;26.70;;;;;;;;;;5015990;28;20185;-82
2023/01/12 04:47:52;;;;;;;39.83;27.80;;;;;;;;;;5049016;28;20631;-82
2023/01/12 04:50:18;;;;;;;36.60;26.10;;;;;;;;;;5084476;28;20244;-81
2023/01/12 04:52:44;;;;;;;34.50;25.30;;;;;;;;;;5054397;28;20196;-82
2023/01/12 04:55:10;;;;;;;31.20;24.37;;;;;;;;;;5072072;28;20672;-82
2023/01/12 04:57:36;;;;;;;37.83;25.23;;;;;;;;;;5073163;28;20238;-82
2023/01/12 05:00:04;;;;;;;34.30;26.33;;;;;;;;;;5085278;28;20268;-82
2023/01/12 05:02:30;;;;;;;34.07;25.43;;;;;;;;;;5071557;28;20213;-82
2023/01/12 05:04:56;;;;;;;38.00;27.30;;;;;;;;;;5053439;28;20177;-82
2023/01/12 05:07:22;;;;;;;35.80;27.20;;;;;;;;;;5086170;28;20241;-81
2023/01/12 05:12:32;;;;;;;34.17;26.57;;;;;;;;;;5058659;28;20192;-82
2023/01/12 05:14:58;;;;;;;34.33;24.97;;;;;;;;;;5067032;28;20204;-81
2023/01/12 05:17:25;;;;;;;38.10;26.13;;;;;;;;;;5085272;28;20180;-83
2023/01/12 05:19:54;;;;;;;32.60;24.73;;;;;;;;;;5050054;28;20227;-84
2023/01/12 05:22:20;;;;;;;38.10;27.10;;;;;;;;;;5052272;28;20209;-85
2023/01/12 05:24:47;;;;;;;33.17;25.40;;;;;;;;;;5051084;28;20265;-82
2023/01/12 05:27:13;;;;;;;32.50;25.87;;;;;;;;;;5067228;28;20695;-81
2023/01/12 05:29:39;;;;;;;33.23;25.47;;;;;;;;;;5068545;28;20188;-81
2023/01/12 05:32:05;;;;;;;31.80;24.57;;;;;;;;;;5053318;28;20205;-81
2023/01/12 05:34:31;;;;;;;31.23;24.20;;;;;;;;;;5053560;28;20204;-81
2023/01/12 05:36:57;;;;;;;33.57;25.17;;;;;;;;;;5054053;28;20176;-81
2023/01/12 05:39:23;;;;;;;31.17;25.07;;;;;;;;;;5054034;28;20229;-81
2023/01/12 05:44:33;;;;;;;35.73;26.37;;;;;;;;;;5072168;28;20219;-81
2023/01/12 05:46:59;;;;;;;40.47;26.77;;;;;;;;;;5054664;28;20224;-81
2023/01/12 05:49:25;;;;;;;35.57;25.83;;;;;;;;;;5052437;28;20727;-81
2023/01/12 05:51:51;;;;;;;35.50;26.17;;;;;;;;;;5053980;28;20703;-81
2023/01/12 05:54:17;;;;;;;36.70;26.43;;;;;;;;;;5084286;28;20184;-81
2023/01/12 05:56:43;;;;;;;35.80;25.87;;;;;;;;;;5055905;28;20933;-81
2023/01/12 05:59:10;;;;;;;37.47;25.97;;;;;;;;;;5064476;28;20189;-81
2023/01/12 06:01:36;;;;;;;32.27;24.90;;;;;;;;;;5053969;28;20260;-80
2023/01/12 06:04:02;;;;;;;34.87;25.53;;;;;;;;;;5050592;28;20308;-81
2023/01/12 06:06:30;;;;;;;33.13;24.50;;;;;;;;;;5053964;28;20755;-80
2023/01/12 06:08:56;;;;;;;34.77;25.17;;;;;;;;;;5053037;28;20188;-82
2023/01/12 06:14:07;;;;;;;41.07;26.60;;;;;;;;;;5062228;28;20249;-82
2023/01/12 06:16:36;;;;;;;37.00;25.80;;;;;;;;;;5052418;28;20626;-82
2023/01/12 06:19:02;;;;;;;40.30;25.70;;;;;;;;;;5052313;28;20641;-81
2023/01/12 06:21:28;;;;;;;34.70;24.60;;;;;;;;;;5068740;28;20677;-81
2023/01/12 06:23:54;;;;;;;37.23;25.90;;;;;;;;;;5053845;28;20223;-80
2023/01/12 06:26:20;;;;;;;40.17;27.63;;;;;;;;;;5051739;28;20205;-81
2023/01/12 06:28:46;;;;;;;41.90;26.60;;;;;;;;;;5051588;28;20545;-82
2023/01/12 06:31:12;;;;;;;42.00;27.47;;;;;;;;;;5049537;28;20199;-82
2023/01/12 06:33:39;;;;;;;40.27;29.63;;;;;;;;;;5067865;28;20253;-82
2023/01/12 06:36:05;;;;;;;40.47;27.77;;;;;;;;;;5051844;28;20181;-80
2023/01/12 06:38:32;;;;;;;45.77;29.20;;;;;;;;;;5068718;28;20188;-82
2023/01/12 06:41:06;;;;;;;48.10;28.97;;;;;;;;;;5047340;28;20190;-82
2023/01/12 06:43:32;;;;;;;42.87;28.43;;;;;;;;;;5051381;28;20220;-81
2023/01/12 06:45:58;;;;;;;43.37;28.83;;;;;;;;;;5051232;28;20286;-81
2023/01/12 06:48:27;;;;;;;42.33;29.47;;;;;;;;;;5068374;28;20185;-82
2023/01/12 06:50:57;;;;;;;42.70;29.03;;;;;;;;;;5064927;28;20185;-81
2023/01/12 06:53:23;;;;;;;42.57;28.47;;;;;;;;;;5051462;28;20216;-81
2023/01/12 06:55:50;;;;;;;42.63;29.40;;;;;;;;;;5067527;28;20193;-81
2023/01/12 06:58:16;;;;;;;46.93;29.57;;;;;;;;;;5069680;28;20170;-81
2023/01/12 07:00:42;;;;;;;44.13;29.07;;;;;;;;;;5049007;28;20196;-82
2023/01/12 07:03:18;;;;;;;42.53;29.13;;;;;;;;;;5049739;28;20262;-81
2023/01/12 07:05:45;;;;;;;42.23;28.07;;;;;;;;;;5051721;28;20181;-81
2023/01/12 07:08:14;;;;;;;42.00;28.43;;;;;;;;;;5053137;28;20192;-82
2023/01/12 07:10:40;;;;;;;42.73;27.73;;;;;;;;;;5070666;28;20180;-82
2023/01/12 07:13:06;;;;;;;45.27;29.43;;;;;;;;;;5056343;28;20184;-83
2023/01/12 07:15:32;;;;;;;43.27;29.53;;;;;;;;;;5057124;28;20181;-82
2023/01/12 07:17:58;;;;;;;37.43;27.77;;;;;;;;;;5088847;28;20212;-82
2023/01/12 07:20:27;;;;;;;40.67;28.50;;;;;;;;;;5087621;28;20181;-81
2023/01/12 07:22:54;;;;;;;42.30;30.83;;;;;;;;;;5056703;28;20210;-82
2023/01/12 07:25:20;;;;;;;45.30;29.83;;;;;;;;;;5054571;28;20179;-82
2023/01/12 07:27:50;;;;;;;41.37;30.03;;;;;;;;;;5052816;28;20181;-83
2023/01/12 07:30:17;;;;;;;48.93;31.60;;;;;;;;;;5051223;28;20215;-83
2023/01/12 07:32:42;;;;;;;42.67;29.80;;;;;;;;;;5056138;28;20185;-82
2023/01/12 07:35:09;;;;;;;38.43;27.57;;;;;;;;;;5056021;28;20177;-83
2023/01/12 07:37:34;;;;;;;41.77;27.47;;;;;;;;;;5056530;28;20267;-83
2023/01/12 07:40:00;;;;;;;40.17;27.87;;;;;;;;;;5056838;28;20327;-82
2023/01/12 07:42:26;;;;;;;39.70;28.40;;;;;;;;;;5055443;28;20216;-82
2023/01/12 07:44:52;;;;;;;40.23;27.93;;;;;;;;;;5054536;28;20193;-82
2023/01/12 07:47:19;;;;;;;38.03;26.20;;;;;;;;;;5078432;28;20271;-83
2023/01/12 07:49:45;;;;;;;38.87;26.77;;;;;;;;;;5085932;28;20235;-82
2023/01/12 07:52:11;;;;;;;38.20;25.47;;;;;;;;;;5088360;28;20232;-82
2023/01/12 07:54:37;;;;;;;37.30;25.37;;;;;;;;;;5043550;28;20204;-82
2023/01/12 07:57:03;;;;;;;38.10;24.90;;;;;;;;;;5051684;28;20633;-82
2023/01/12 07:59:29;;;;;;;35.30;24.87;;;;;;;;;;5072846;28;20181;-82
2023/01/12 08:01:55;;;;;;;37.30;26.23;;;;;;;;;;5088460;28;20187;-84
2023/01/12 08:04:22;;;;;;;34.83;26.33;;;;;;;;;;5079706;28;20185;-83
2023/01/12 08:06:48;;;;;;;34.80;25.20;;;;;;;;;;5070746;28;20173;-83
2023/01/12 08:09:14;;;;;;;35.30;25.47;;;;;;;;;;5053825;28;20185;-81
2023/01/12 08:11:40;;;;;;;33.13;24.23;;;;;;;;;;5054477;28;20199;-83
2023/01/12 08:14:06;;;;;;;32.67;24.27;;;;;;;;;;5054351;28;20192;-83
2023/01/12 08:16:35;;;;;;;32.57;24.40;;;;;;;;;;5070610;28;20181;-84
2023/01/12 08:19:02;;;;;;;31.97;23.20;;;;;;;;;;5091822;28;20183;-83
2023/01/12 08:21:32;;;;;;;35.10;23.77;;;;;;;;;;5057481;28;20553;-83
2023/01/12 08:23:59;;;;;;;32.43;24.53;;;;;;;;;;5062969;28;20788;-84
2023/01/12 08:26:31;;;;;;;35.17;23.63;;;;;;;;;;5059774;28;20323;-84
2023/01/12 08:29:01;;;;;;;31.17;22.43;;;;;;;;;;5060429;28;20276;-83
2023/01/12 08:31:27;;;;;;;31.83;22.13;;;;;;;;;;5053146;28;20235;-83
2023/01/12 08:33:54;;;;;;;29.80;22.53;;;;;;;;;;5054075;28;20829;-83
2023/01/12 08:36:20;;;;;;;34.47;24.03;;;;;;;;;;5054112;28;20638;-83
2023/01/12 08:38:46;;;;;;;38.83;23.67;;;;;;;;;;5054094;28;20185;-83
2023/01/12 08:44:03;;;;;;;29.10;23.20;;;;;;;;;;5070030;28;20275;-83
2023/01/12 08:46:34;;;;;;;32.50;22.40;;;;;;;;;;5090002;28;20694;-83
2023/01/12 08:49:00;;;;;;;31.53;22.33;;;;;;;;;;5050313;28;21176;-82
2023/01/12 08:51:27;;;;;;;29.07;22.03;;;;;;;;;;5052863;28;20196;-84
2023/01/12 08:53:53;;;;;;;31.20;21.63;;;;;;;;;;5053340;28;20203;-83
2023/01/12 08:56:19;;;;;;;33.50;22.60;;;;;;;;;;5052289;28;20188;-83
2023/01/12 08:58:45;;;;;;;26.93;20.57;;;;;;;;;;5058479;28;20189;-83
2023/01/12 09:01:12;;;;;;;29.70;20.00;;;;;;;;;;5087487;28;20179;-83
2023/01/12 09:03:39;;;;;;;27.87;20.37;;;;;;;;;;5068311;28;20228;-83
2023/01/12 09:06:19;;;;;;;26.63;19.70;;;;;;;;;;5054732;28;20181;-83
2023/01/12 09:08:46;;;;;;;27.60;19.73;;;;;;;;;;5068543;28;20546;-84
2023/01/12 09:11:12;;;;;;;28.40;20.53;;;;;;;;;;5050456;28;20173;-83
2023/01/12 09:13:38;;;;;;;32.00;20.93;;;;;;;;;;5070840;28;20196;-83
2023/01/12 09:16:09;;;;;;;27.40;18.90;;;;;;;;;;5052709;28;20184;-83
2023/01/12 09:18:36;;;;;;;30.07;19.97;;;;;;;;;;5053413;28;20198;-84
2023/01/12 09:21:06;;;;;;;28.87;20.37;;;;;;;;;;5068381;28;20573;-83
2023/01/12 09:23:32;;;;;;;30.97;19.70;;;;;;;;;;5051968;28;20228;-82
2023/01/12 09:26:02;;;;;;;28.03;19.00;;;;;;;;;;5055564;28;20653;-84
2023/01/12 09:28:28;;;;;;;28.27;18.77;;;;;;;;;;5051863;28;20181;-83
2023/01/12 09:30:54;;;;;;;26.60;18.67;;;;;;;;;;5070063;28;20173;-83
2023/01/12 09:33:20;;;;;;;29.67;19.87;;;;;;;;;;5051401;28;20195;-83
2023/01/12 09:35:47;;;;;;;25.93;19.10;;;;;;;;;;5068292;28;20185;-84
2023/01/12 09:38:13;;;;;;;25.23;16.70;;;;;;;;;;5052278;28;20170;-83
2023/01/12 09:40:42;;;;;;;29.90;18.70;;;;;;;;;;5049562;28;20174;-83
2023/01/12 09:48:39;;;;;;;21.77;16.40;;;;;;;;;;5071944;28;20176;-84
2023/01/12 09:51:17;;;;;;;27.90;17.97;;;;;;;;;;5053502;28;20181;-81
2023/01/12 09:53:43;;;;;;;23.60;14.77;;;;;;;;;;5056216;28;20234;-85
2023/01/12 09:56:12;;;;;;;25.50;15.20;;;;;;;;;;5054915;28;20196;-83
2023/01/12 09:58:38;;;;;;;25.00;14.87;;;;;;;;;;5055522;28;20177;-84
2023/01/12 10:01:12;;;;;;;21.37;14.57;;;;;;;;;;5061973;28;20183;-84
2023/01/12 10:03:40;;;;;;;23.77;14.00;;;;;;;;;;5053632;28;20221;-85
2023/01/12 10:06:12;;;;;;;17.77;12.83;;;;;;;;;;5083335;28;20576;-84
2023/01/12 10:08:41;;;;;;;16.33;10.90;;;;;;;;;;5052669;28;20177;-83
2023/01/12 10:11:25;;;;;;;15.80;10.60;;;;;;;;;;5053480;28;20692;-84
2023/01/12 10:13:51;;;;;;;19.73;10.37;;;;;;;;;;5077616;28;20206;-83
2023/01/12 10:16:25;;;;;;;14.97;10.30;;;;;;;;;;5059816;28;20169;-83
2023/01/12 10:18:52;;;;;;;17.50;9.97;;;;;;;;;;5087419;28;20673;-83
2023/01/12 10:21:22;;;;;;;16.63;10.50;;;;;;;;;;5073591;28;20207;-84
2023/01/12 10:23:49;;;;;;;12.47;9.30;;;;;;;;;;5060406;28;20238;-84
2023/01/12 10:26:18;;;;;;;14.97;10.23;;;;;;;;;;5062568;28;20296;-85
2023/01/12 10:28:54;;;;;;;16.73;9.43;;;;;;;;;;5058186;28;20184;-84
2023/01/12 10:31:22;;;;;;;18.10;10.27;;;;;;;;;;5057758;28;20217;-84
2023/01/12 10:34:23;;;;;;;12.33;9.00;;;;;;;;;;5085558;28;20515;-83
2023/01/12 10:36:53;;;;;;;12.70;8.97;;;;;;;;;;5029146;28;20192;-83
2023/01/12 10:39:35;;;;;;;17.53;9.60;;;;;;;;;;5025608;28;20805;-84
2023/01/12 10:45:14;;;;;;;16.97;10.40;;;;;;;;;;5033623;28;20189;-83
2023/01/12 10:47:41;;;;;;;17.30;10.73;;;;;;;;;;5040464;28;20221;-84
2023/01/12 10:50:19;;;;;;;17.33;10.93;;;;;;;;;;5038267;28;20772;-83
2023/01/12 10:52:46;;;;;;;19.43;11.47;;;;;;;;;;5026436;28;21780;-84
2023/01/12 10:55:18;;;;;;;19.63;11.80;;;;;;;;;;5033638;28;20237;-83
2023/01/12 10:57:44;;;;;;;15.27;11.33;;;;;;;;;;5047588;28;20189;-83
2023/01/12 11:00:18;;;;;;;22.87;12.30;;;;;;;;;;5038276;28;20742;-83
2023/01/12 11:02:44;;;;;;;15.93;11.80;;;;;;;;;;5036024;28;20210;-83
2023/01/12 11:05:26;;;;;;;17.47;11.47;;;;;;;;;;5036985;28;20262;-83
2023/01/12 11:07:52;;;;;;;22.80;11.70;;;;;;;;;;5017414;28;20183;-83
2023/01/12 11:10:19;;;;;;;19.47;12.07;;;;;;;;;;5028730;28;20242;-84
2023/01/12 11:12:53;;;;;;;13.73;11.03;;;;;;;;;;5088810;28;20653;-84
2023/01/12 11:15:19;;;;;;;23.93;11.80;;;;;;;;;;5058429;28;20185;-83
2023/01/12 11:17:55;;;;;;;18.43;11.43;;;;;;;;;;5057562;28;20298;-84
2023/01/12 11:20:21;;;;;;;19.63;11.40;;;;;;;;;;5061761;28;20637;-84
2023/01/12 11:22:48;;;;;;;19.37;11.77;;;;;;;;;;5089121;28;20262;-84
2023/01/12 11:25:20;;;;;;;22.47;12.83;;;;;;;;;;5064459;28;20176;-84
2023/01/12 11:27:48;;;;;;;16.23;11.10;;;;;;;;;;5061308;28;20226;-84
2023/01/12 11:30:20;;;;;;;16.73;11.47;;;;;;;;;;5063918;28;20648;-84
2023/01/12 11:32:57;;;;;;;18.03;11.83;;;;;;;;;;5060220;28;20661;-84
2023/01/12 11:35:36;;;;;;;21.93;12.27;;;;;;;;;;5059753;28;20192;-84
2023/01/12 11:38:10;;;;;;;16.77;11.60;;;;;;;;;;5054166;28;20184;-84
2023/01/12 11:40:37;;;;;;;19.47;11.57;;;;;;;;;;5058419;28;20279;-83
2023/01/12 11:46:12;;;;;;;16.37;10.83;;;;;;;;;;5081752;28;20204;-83
2023/01/12 11:48:58;;;;;;;18.23;11.73;;;;;;;;;;5055539;28;20184;-84
2023/01/12 11:51:24;;;;;;;17.40;10.67;;;;;;;;;;5020998;28;20194;-83
2023/01/12 11:53:50;;;;;;;17.77;11.87;;;;;;;;;;5029402;28;20202;-84
2023/01/12 11:56:42;;;;;;;15.53;10.87;;;;;;;;;;5022776;28;20197;-83
2023/01/12 11:59:20;;;;;;;17.27;10.13;;;;;;;;;;5024383;28;20206;-83
2023/01/12 12:01:49;;;;;;;14.13;9.70;;;;;;;;;;5021752;28;20198;-83
2023/01/12 12:04:29;;;;;;;15.70;9.20;;;;;;;;;;5030431;28;20682;-83
2023/01/12 12:07:03;;;;;;;16.73;8.87;;;;;;;;;;5024996;28;20231;-83
2023/01/12 12:09:32;;;;;;;12.67;8.53;;;;;;;;;;5020673;28;20198;-84
2023/01/12 12:12:03;;;;;;;12.47;8.83;;;;;;;;;;5014090;28;20225;-84
2023/01/12 12:14:38;;;;;;;17.07;9.20;;;;;;;;;;5016960;28;20766;-84
2023/01/12 12:17:09;;;;;;;12.97;8.77;;;;;;;;;;5043368;28;20182;-84
2023/01/12 12:19:37;;;;;;;14.87;8.43;;;;;;;;;;5048793;28;20256;-82
2023/01/12 12:22:22;;;;;;;12.80;8.40;;;;;;;;;;5019231;28;20190;-83
2023/01/12 12:24:59;;;;;;;12.73;8.03;;;;;;;;;;5015244;28;20228;-83
2023/01/12 12:27:50;;;;;;;13.43;8.30;;;;;;;;;;5014591;28;20257;-84
2023/01/12 12:30:25;;;;;;;13.23;8.30;;;;;;;;;;5085467;28;20216;-83
2023/01/12 12:33:04;;;;;;;11.97;7.67;;;;;;;;;;5053529;28;20232;-83
2023/01/12 12:35:44;;;;;;;14.43;8.77;;;;;;;;;;5047990;28;20181;-82
2023/01/12 12:38:19;;;;;;;11.80;8.20;;;;;;;;;;5052201;28;20228;-83
2023/01/12 12:46:19;;;;;;;12.27;8.63;;;;;;;;;;5073100;28;20235;-82
2023/01/12 12:48:51;;;;;;;14.00;9.20;;;;;;;;;;5053856;28;20184;-83
2023/01/12 12:51:17;;;;;;;14.97;8.93;;;;;;;;;;5086646;28;20207;-84
2023/01/12 12:53:45;;;;;;;11.97;9.23;;;;;;;;;;5054504;28;20650;-84
2023/01/12 12:56:16;;;;;;;13.20;8.57;;;;;;;;;;5050718;28;20190;-84
2023/01/12 12:58:45;;;;;;;11.87;7.87;;;;;;;;;;5061111;28;20633;-84
2023/01/12 13:01:23;;;;;;;11.27;8.17;;;;;;;;;;5087143;28;20268;-83
2023/01/12 13:03:49;;;;;;;11.73;8.53;;;;;;;;;;5081052;28;20614;-84
2023/01/12 13:06:15;;;;;;;13.87;8.63;;;;;;;;;;5060794;28;20633;-83
2023/01/12 13:08:41;;;;;;;9.50;7.93;;;;;;;;;;5064050;28;20188;-83
2023/01/12 13:11:08;;;;;;;13.77;8.90;;;;;;;;;;5053024;28;20232;-82
2023/01/12 13:13:36;;;;;;;12.23;8.47;;;;;;;;;;5051641;28;20178;-83
2023/01/12 13:16:11;;;;;;;12.70;8.17;;;;;;;;;;5076560;28;20183;-84
2023/01/12 13:18:52;;;;;;;10.50;7.63;;;;;;;;;;5053206;28;20207;-84
2023/01/12 13:21:27;;;;;;;11.13;7.90;;;;;;;;;;5052135;28;20181;-84
2023/01/12 13:23:54;;;;;;;11.23;7.97;;;;;;;;;;5057278;28;20212;-85
2023/01/12 13:26:26;;;;;;;13.50;8.53;;;;;;;;;;5056428;28;20189;-84
2023/01/12 13:29:15;;;;;;;11.70;8.47;;;;;;;;;;5064541;28;20227;-84
2023/01/12 13:31:41;;;;;;;11.90;7.10;;;;;;;;;;5044059;28;20204;-84
2023/01/12 13:34:26;;;;;;;12.23;6.77;;;;;;;;;;5054334;28;20179;-84
2023/01/12 13:37:11;;;;;;;14.73;6.93;;;;;;;;;;5055442;28;20322;-84
2023/01/12 13:39:39;;;;;;;9.63;6.20;;;;;;;;;;5056850;28;20181;-83
2023/01/12 13:44:52;;;;;;;11.77;6.17;;;;;;;;;;5073781;28;20242;-82
2023/01/12 13:47:24;;;;;;;11.53;6.60;;;;;;;;;;5080268;28;20360;-83
2023/01/12 13:49:52;;;;;;;11.27;6.53;;;;;;;;;;5076986;28;20197;-81
2023/01/12 13:52:38;;;;;;;10.07;5.57;;;;;;;;;;5085043;28;20177;-82
2023/01/12 13:55:17;;;;;;;8.70;6.20;;;;;;;;;;5077338;28;20260;-81
2023/01/12 13:57:54;;;;;;;13.93;6.77;;;;;;;;;;5070078;28;20191;-81
2023/01/12 14:00:22;;;;;;;9.17;6.10;;;;;;;;;;5052842;28;20258;-82
2023/01/12 14:02:49;;;;;;;9.97;6.00;;;;;;;;;;5070815;28;20237;-82
2023/01/12 14:05:15;;;;;;;11.03;6.20;;;;;;;;;;5054251;28;20664;-82
2023/01/12 14:07:51;;;;;;;11.60;6.77;;;;;;;;;;5074170;28;20205;-82
2023/01/12 14:10:56;;;;;;;14.17;7.10;;;;;;;;;;5087323;28;20173;-83
2023/01/12 14:13:40;;;;;;;11.57;6.90;;;;;;;;;;4993959;28;20191;-82
2023/01/12 14:18:58;;;;;;;10.07;6.63;;;;;;;;;;4995240;28;20221;-82
2023/01/12 14:21:36;;;;;;;10.03;6.17;;;;;;;;;;4979841;28;20214;-82
2023/01/12 14:24:14;;;;;;;12.57;7.03;;;;;;;;;;5004540;28;20219;-82
2023/01/12 14:26:40;;;;;;;10.77;6.57;;;;;;;;;;4985985;28;20695;-82
2023/01/12 14:29:07;;;;;;;10.70;6.07;;;;;;;;;;4983746;28;20264;-81
2023/01/12 14:31:38;;;;;;;10.60;6.50;;;;;;;;;;4998843;28;20186;-81
2023/01/12 14:34:04;;;;;;;11.43;7.10;;;;;;;;;;5003153;28;20179;-82
2023/01/12 14:36:34;;;;;;;12.67;6.47;;;;;;;;;;4976866;28;20249;-81
2023/01/12 14:39:00;;;;;;;11.20;6.30;;;;;;;;;;4994329;28;20182;-82
2023/01/12 14:47:01;;;;;;;11.80;6.80;;;;;;;;;;5072967;28;20243;-83
2023/01/12 14:49:32;;;;;;;8.23;5.27;;;;;;;;;;5056495;28;20197;-83
2023/01/12 14:52:00;;;;;;;12.93;6.90;;;;;;;;;;5054983;28;20212;-83
2023/01/12 14:54:27;;;;;;;9.53;5.93;;;;;;;;;;5072037;28;20601;-83
2023/01/12 14:57:06;;;;;;;12.23;6.77;;;;;;;;;;5053684;28;20347;-83
2023/01/12 14:59:34;;;;;;;10.90;7.50;;;;;;;;;;5053218;28;20721;-83
2023/01/12 15:02:12;;;;;;;14.87;7.57;;;;;;;;;;5055514;28;20280;-83
2023/01/12 15:04:54;;;;;;;18.57;7.93;;;;;;;;;;5053684;28;20234;-82
2023/01/12 15:07:20;;;;;;;14.70;7.90;;;;;;;;;;5087806;28;20177;-83
2023/01/12 15:10:07;;;;;;;12.43;7.87;;;;;;;;;;5054227;28;20181;-83
2023/01/12 15:12:46;;;;;;;11.63;6.40;;;;;;;;;;5046865;28;20220;-82
2023/01/12 15:15:13;;;;;;;11.97;7.03;;;;;;;;;;5054275;28;20195;-80
2023/01/12 15:25:56;;;;;;;12.63;7.13;;;;;;;;;;5069874;28;20207;-83
2023/01/12 15:28:23;;;;;;;9.87;6.90;;;;;;;;;;5072759;28;20193;-83
2023/01/12 15:30:49;;;;;;;9.97;6.70;;;;;;;;;;5053002;28;20257;-83